NDF12C EDDH-LIPZ
Flight info
| Callsign | NDF12C |
|---|---|
| Flight time | 1h 28m |
| Altitude | 35000 |
| Route | IDEKO7G/33 IDEKO N850 XAROL/N0454F340 DCT BOMBI/N0452F360 DCT GIGET DCT ABUKA/N0453F350 DCT TEDGO DCT BATUB/N0468F290 M738 ADOSA L612 ALBET ALBET2E |
| Aircraft | A320/M-SDE3FGHIRWY/LB1 |
Departure
| Time | 2026-05-04 20:42 |
|---|---|
| Airport | Hamburg Helmut Schmidt Airport (EDDH) |
Arrival
| Time | 2026-05-04 22:11 |
|---|---|
| Airport | Venice Marco Polo Airport (LIPZ) |
| Time | Latitude | Longitude | Altitude | Speed | Heading |
|---|---|---|---|---|---|
| 2026-05-04 20:18 | 53.63372 | 10.00342 | 49 ft | 0 kts | 86° |
| 2026-05-04 20:35 | 53.63371 | 10.00302 | 47 ft | 4 kts | 89° |
| 2026-05-04 20:35 | 53.63371 | 10.00257 | 43 ft | 4 kts | 93° |
| 2026-05-04 20:35 | 53.63374 | 10.00211 | 44 ft | 4 kts | 102° |
| 2026-05-04 20:36 | 53.63383 | 10.00171 | 45 ft | 4 kts | 142° |
| 2026-05-04 20:36 | 53.63391 | 10.00162 | 46 ft | 0 kts | 176° |
| 2026-05-04 20:39 | 53.63341 | 10.00167 | 48 ft | 11 kts | 177° |
| 2026-05-04 20:39 | 53.63274 | 10.00174 | 48 ft | 9 kts | 176° |
| 2026-05-04 20:39 | 53.63212 | 10.00181 | 48 ft | 13 kts | 176° |
| 2026-05-04 20:39 | 53.63106 | 10.00194 | 48 ft | 16 kts | 178° |
| 2026-05-04 20:40 | 53.63009 | 10.00122 | 48 ft | 16 kts | 214° |
| 2026-05-04 20:40 | 53.62927 | 10.00010 | 48 ft | 13 kts | 235° |
| 2026-05-04 20:40 | 53.62896 | 9.99916 | 48 ft | 0 kts | 242° |
| 2026-05-04 20:41 | 53.62887 | 9.99888 | 45 ft | 11 kts | 242° |
| 2026-05-04 20:41 | 53.62872 | 9.99750 | 44 ft | 13 kts | 300° |
| 2026-05-04 20:41 | 53.62903 | 9.99713 | 45 ft | 0 kts | 333° |
| 2026-05-04 20:41 | 53.62926 | 9.99693 | 45 ft | 24 kts | 333° |
| 2026-05-04 20:42 | 53.63305 | 9.99362 | 47 ft | 94 kts | 333° |
| 2026-05-04 20:42 | 53.64054 | 9.98714 | 52 ft | 145 kts | 332° |
| 2026-05-04 20:42 | 53.65059 | 9.97840 | 240 ft | 170 kts | 332° |
| 2026-05-04 20:42 | 53.66096 | 9.96890 | 838 ft | 170 kts | 330° |
| 2026-05-04 20:43 | 53.67145 | 9.95934 | 1461 ft | 173 kts | 332° |
| 2026-05-04 20:43 | 53.68235 | 9.95009 | 2035 ft | 180 kts | 334° |
| 2026-05-04 20:43 | 53.69376 | 9.94113 | 2573 ft | 187 kts | 335° |
| 2026-05-04 20:43 | 53.70569 | 9.93155 | 3160 ft | 192 kts | 330° |
| 2026-05-04 20:44 | 53.71558 | 9.91571 | 3529 ft | 209 kts | 293° |
| 2026-05-04 20:44 | 53.71671 | 9.89053 | 3783 ft | 230 kts | 252° |
| 2026-05-04 20:44 | 53.71048 | 9.86416 | 4111 ft | 254 kts | 248° |
| 2026-05-04 20:44 | 53.70210 | 9.83723 | 4709 ft | 265 kts | 231° |
| 2026-05-04 20:45 | 53.68763 | 9.81793 | 4952 ft | 268 kts | 203° |
| 2026-05-04 20:45 | 53.66980 | 9.80781 | 5318 ft | 273 kts | 197° |
| 2026-05-04 20:45 | 53.65171 | 9.79833 | 6235 ft | 273 kts | 197° |
| 2026-05-04 20:45 | 53.63353 | 9.78878 | 7040 ft | 275 kts | 198° |
| 2026-05-04 20:46 | 53.61542 | 9.77918 | 7811 ft | 278 kts | 198° |
| 2026-05-04 20:46 | 53.59682 | 9.76927 | 8562 ft | 282 kts | 198° |
| 2026-05-04 20:46 | 53.57803 | 9.75922 | 9324 ft | 285 kts | 198° |
| 2026-05-04 20:46 | 53.55904 | 9.74905 | 10051 ft | 288 kts | 198° |
| 2026-05-04 20:47 | 53.53945 | 9.73855 | 10425 ft | 306 kts | 198° |
| 2026-05-04 20:47 | 53.51836 | 9.72725 | 10603 ft | 329 kts | 198° |
| 2026-05-04 20:47 | 53.49580 | 9.71518 | 10737 ft | 352 kts | 198° |
| 2026-05-04 20:47 | 53.47193 | 9.70245 | 11072 ft | 365 kts | 198° |
| 2026-05-04 20:48 | 53.44753 | 9.68945 | 11659 ft | 370 kts | 198° |
| 2026-05-04 20:48 | 53.42286 | 9.67632 | 12282 ft | 374 kts | 198° |
| 2026-05-04 20:48 | 53.39796 | 9.66311 | 12898 ft | 377 kts | 198° |
| 2026-05-04 20:48 | 53.37315 | 9.64998 | 13486 ft | 381 kts | 198° |
| 2026-05-04 20:49 | 53.34781 | 9.63653 | 14069 ft | 384 kts | 198° |
| 2026-05-04 20:49 | 53.32226 | 9.62300 | 14650 ft | 387 kts | 198° |
| 2026-05-04 20:49 | 53.29646 | 9.60935 | 15214 ft | 390 kts | 198° |
| 2026-05-04 20:49 | 53.27046 | 9.59560 | 15765 ft | 393 kts | 198° |
| 2026-05-04 20:50 | 53.24428 | 9.58176 | 16311 ft | 396 kts | 198° |
| 2026-05-04 20:50 | 53.21784 | 9.56780 | 16844 ft | 400 kts | 198° |
| 2026-05-04 20:50 | 53.19125 | 9.55379 | 17368 ft | 403 kts | 198° |
| 2026-05-04 20:50 | 53.16442 | 9.53963 | 17882 ft | 406 kts | 198° |
| 2026-05-04 20:51 | 53.13742 | 9.52544 | 18378 ft | 409 kts | 198° |
| 2026-05-04 20:51 | 53.11019 | 9.51118 | 18857 ft | 412 kts | 198° |
| 2026-05-04 20:51 | 53.08314 | 9.49705 | 19313 ft | 414 kts | 198° |
| 2026-05-04 20:51 | 53.05556 | 9.48264 | 19766 ft | 417 kts | 198° |
| 2026-05-04 20:52 | 53.02779 | 9.46815 | 20201 ft | 420 kts | 198° |
| 2026-05-04 20:52 | 52.99978 | 9.45397 | 20617 ft | 422 kts | 194° |
| 2026-05-04 20:52 | 52.97076 | 9.44538 | 21015 ft | 425 kts | 187° |
| 2026-05-04 20:52 | 52.94131 | 9.43918 | 21407 ft | 428 kts | 187° |
| 2026-05-04 20:53 | 52.91170 | 9.43293 | 21785 ft | 430 kts | 187° |
| 2026-05-04 20:53 | 52.88190 | 9.42663 | 22154 ft | 432 kts | 187° |
| 2026-05-04 20:53 | 52.85203 | 9.42026 | 22504 ft | 435 kts | 187° |
| 2026-05-04 20:53 | 52.82193 | 9.41379 | 22846 ft | 437 kts | 187° |
| 2026-05-04 20:54 | 52.79174 | 9.40728 | 23182 ft | 439 kts | 187° |
| 2026-05-04 20:54 | 52.76135 | 9.40079 | 23502 ft | 441 kts | 187° |
| 2026-05-04 20:54 | 52.73124 | 9.39442 | 23809 ft | 443 kts | 187° |
| 2026-05-04 20:54 | 52.70056 | 9.38795 | 24117 ft | 445 kts | 187° |
| 2026-05-04 20:55 | 52.66976 | 9.38151 | 24417 ft | 447 kts | 187° |
| 2026-05-04 20:55 | 52.63882 | 9.37500 | 24705 ft | 449 kts | 187° |
| 2026-05-04 20:55 | 52.60773 | 9.36826 | 24984 ft | 451 kts | 188° |
| 2026-05-04 20:55 | 52.57665 | 9.36066 | 25258 ft | 453 kts | 189° |
| 2026-05-04 20:56 | 52.54548 | 9.35237 | 25519 ft | 455 kts | 189° |
| 2026-05-04 20:56 | 52.51416 | 9.34370 | 25777 ft | 456 kts | 190° |
| 2026-05-04 20:56 | 52.48280 | 9.33498 | 26025 ft | 458 kts | 189° |
| 2026-05-04 20:56 | 52.45132 | 9.32635 | 26265 ft | 460 kts | 189° |
| 2026-05-04 20:57 | 52.41973 | 9.31788 | 26495 ft | 461 kts | 189° |
| 2026-05-04 20:57 | 52.38795 | 9.30954 | 26718 ft | 463 kts | 189° |
| 2026-05-04 20:57 | 52.35610 | 9.30133 | 26932 ft | 464 kts | 189° |
| 2026-05-04 20:57 | 52.32457 | 9.29325 | 27131 ft | 466 kts | 189° |
| 2026-05-04 20:58 | 52.29250 | 9.28499 | 27322 ft | 467 kts | 189° |
| 2026-05-04 20:58 | 52.26046 | 9.27666 | 27592 ft | 466 kts | 189° |
| 2026-05-04 20:58 | 52.22839 | 9.26839 | 27871 ft | 466 kts | 188° |
| 2026-05-04 20:58 | 52.19629 | 9.26120 | 28138 ft | 466 kts | 187° |
| 2026-05-04 20:59 | 52.16414 | 9.25517 | 28414 ft | 465 kts | 186° |
| 2026-05-04 20:59 | 52.13198 | 9.24981 | 28701 ft | 464 kts | 186° |
| 2026-05-04 20:59 | 52.09988 | 9.24467 | 28971 ft | 463 kts | 186° |
| 2026-05-04 20:59 | 52.06781 | 9.23945 | 29226 ft | 463 kts | 186° |
| 2026-05-04 21:00 | 52.03584 | 9.23365 | 29493 ft | 462 kts | 187° |
| 2026-05-04 21:00 | 52.00395 | 9.22631 | 29765 ft | 462 kts | 189° |
| 2026-05-04 21:00 | 51.97229 | 9.21782 | 30033 ft | 462 kts | 190° |
| 2026-05-04 21:00 | 51.94111 | 9.20888 | 30274 ft | 461 kts | 190° |
| 2026-05-04 21:01 | 51.90952 | 9.19977 | 30535 ft | 461 kts | 190° |
| 2026-05-04 21:01 | 51.87798 | 9.19092 | 30768 ft | 461 kts | 189° |
| 2026-05-04 21:01 | 51.84628 | 9.18294 | 31036 ft | 460 kts | 188° |
| 2026-05-04 21:01 | 51.81461 | 9.17594 | 31292 ft | 459 kts | 187° |
| 2026-05-04 21:02 | 51.78291 | 9.16952 | 31536 ft | 459 kts | 187° |
| 2026-05-04 21:02 | 51.75118 | 9.16325 | 31778 ft | 459 kts | 187° |
| 2026-05-04 21:02 | 51.71958 | 9.15692 | 32028 ft | 458 kts | 187° |
| 2026-05-04 21:02 | 51.68799 | 9.15039 | 32277 ft | 457 kts | 187° |
| 2026-05-04 21:03 | 51.65646 | 9.14368 | 32517 ft | 457 kts | 188° |
| 2026-05-04 21:03 | 51.62495 | 9.13685 | 32754 ft | 456 kts | 188° |
| 2026-05-04 21:03 | 51.59352 | 9.13001 | 32984 ft | 456 kts | 188° |
| 2026-05-04 21:03 | 51.56251 | 9.12324 | 33210 ft | 456 kts | 188° |
| 2026-05-04 21:04 | 51.53116 | 9.11642 | 33440 ft | 455 kts | 188° |
| 2026-05-04 21:04 | 51.49983 | 9.10942 | 33665 ft | 455 kts | 189° |
| 2026-05-04 21:04 | 51.46865 | 9.10078 | 33891 ft | 454 kts | 191° |
| 2026-05-04 21:04 | 51.43771 | 9.09052 | 34110 ft | 454 kts | 193° |
| 2026-05-04 21:05 | 51.40697 | 9.07931 | 34331 ft | 453 kts | 193° |
| 2026-05-04 21:05 | 51.37628 | 9.06781 | 34554 ft | 453 kts | 193° |
| 2026-05-04 21:05 | 51.34560 | 9.05652 | 34764 ft | 452 kts | 193° |
| 2026-05-04 21:05 | 51.31484 | 9.04570 | 34948 ft | 453 kts | 192° |
| 2026-05-04 21:06 | 51.25232 | 9.03002 | 35008 ft | 456 kts | 187° |
| 2026-05-04 21:06 | 51.18913 | 9.01951 | 35013 ft | 456 kts | 186° |
| 2026-05-04 21:07 | 51.12588 | 9.00872 | 35009 ft | 459 kts | 187° |
| 2026-05-04 21:07 | 51.06236 | 8.99621 | 35013 ft | 466 kts | 187° |
| 2026-05-04 21:08 | 50.99780 | 8.98286 | 35009 ft | 470 kts | 187° |
| 2026-05-04 21:08 | 50.93265 | 8.96976 | 35007 ft | 473 kts | 187° |
| 2026-05-04 21:09 | 50.86722 | 8.95687 | 35009 ft | 474 kts | 187° |
| 2026-05-04 21:09 | 50.80170 | 8.94414 | 35009 ft | 474 kts | 187° |
| 2026-05-04 21:10 | 50.73621 | 8.93139 | 35010 ft | 474 kts | 187° |
| 2026-05-04 21:10 | 50.67070 | 8.91855 | 35007 ft | 475 kts | 187° |
| 2026-05-04 21:11 | 50.60559 | 8.90583 | 35009 ft | 475 kts | 187° |
| 2026-05-04 21:11 | 50.54006 | 8.89304 | 35016 ft | 475 kts | 187° |
| 2026-05-04 21:12 | 50.47452 | 8.88034 | 35016 ft | 474 kts | 187° |
| 2026-05-04 21:12 | 50.40907 | 8.86775 | 35017 ft | 474 kts | 187° |
| 2026-05-04 21:13 | 50.34358 | 8.85514 | 35017 ft | 474 kts | 187° |
| 2026-05-04 21:13 | 50.27813 | 8.84250 | 35016 ft | 474 kts | 187° |
| 2026-05-04 21:14 | 50.21269 | 8.82996 | 35015 ft | 474 kts | 187° |
| 2026-05-04 21:14 | 50.14728 | 8.81749 | 35014 ft | 474 kts | 187° |
| 2026-05-04 21:15 | 50.08230 | 8.80514 | 35015 ft | 474 kts | 187° |
| 2026-05-04 21:15 | 50.01691 | 8.79248 | 35015 ft | 474 kts | 187° |
| 2026-05-04 21:16 | 49.95160 | 8.77881 | 35014 ft | 474 kts | 188° |
| 2026-05-04 21:16 | 49.88628 | 8.76491 | 35007 ft | 474 kts | 188° |
| 2026-05-04 21:17 | 49.82097 | 8.75123 | 35010 ft | 474 kts | 188° |
| 2026-05-04 21:17 | 49.75558 | 8.73768 | 35008 ft | 474 kts | 188° |
| 2026-05-04 21:18 | 49.69050 | 8.72436 | 35007 ft | 475 kts | 188° |
| 2026-05-04 21:18 | 49.62489 | 8.71111 | 35013 ft | 476 kts | 187° |
| 2026-05-04 21:19 | 49.55924 | 8.69794 | 35022 ft | 476 kts | 187° |
| 2026-05-04 21:19 | 49.49344 | 8.68779 | 35022 ft | 475 kts | 179° |
| 2026-05-04 21:20 | 49.42862 | 8.70586 | 35021 ft | 476 kts | 160° |
| 2026-05-04 21:20 | 49.36812 | 8.74696 | 35014 ft | 476 kts | 156° |
| 2026-05-04 21:21 | 49.30774 | 8.78880 | 35021 ft | 476 kts | 156° |
| 2026-05-04 21:21 | 49.24775 | 8.83026 | 35022 ft | 476 kts | 156° |
| 2026-05-04 21:22 | 49.18736 | 8.87202 | 35024 ft | 476 kts | 156° |
| 2026-05-04 21:22 | 49.12689 | 8.91362 | 35026 ft | 476 kts | 156° |
| 2026-05-04 21:23 | 49.06639 | 8.95502 | 35026 ft | 477 kts | 156° |
| 2026-05-04 21:23 | 49.00591 | 8.99646 | 35026 ft | 477 kts | 156° |
| 2026-05-04 21:24 | 48.94545 | 9.03789 | 35027 ft | 477 kts | 156° |
| 2026-05-04 21:24 | 48.88528 | 9.07885 | 35028 ft | 477 kts | 156° |
| 2026-05-04 21:25 | 48.82468 | 9.11997 | 35027 ft | 477 kts | 156° |
| 2026-05-04 21:25 | 48.76405 | 9.16102 | 35027 ft | 477 kts | 156° |
| 2026-05-04 21:26 | 48.70340 | 9.20191 | 35025 ft | 477 kts | 156° |
| 2026-05-04 21:26 | 48.64278 | 9.24275 | 35024 ft | 477 kts | 156° |
| 2026-05-04 21:27 | 48.58122 | 9.27837 | 35023 ft | 477 kts | 161° |
| 2026-05-04 21:27 | 48.51848 | 9.31042 | 35023 ft | 477 kts | 161° |
| 2026-05-04 21:28 | 48.45558 | 9.34254 | 35015 ft | 477 kts | 161° |
| 2026-05-04 21:28 | 48.39269 | 9.37477 | 35011 ft | 478 kts | 161° |
| 2026-05-04 21:29 | 48.32968 | 9.40691 | 35007 ft | 478 kts | 161° |
| 2026-05-04 21:29 | 48.26659 | 9.43889 | 35012 ft | 479 kts | 161° |
| 2026-05-04 21:30 | 48.20344 | 9.47084 | 35015 ft | 479 kts | 161° |
| 2026-05-04 21:30 | 48.14082 | 9.50250 | 35020 ft | 478 kts | 161° |
| 2026-05-04 21:31 | 48.04643 | 9.55016 | 34545 ft | 474 kts | 160° |
| 2026-05-04 21:31 | 48.01629 | 9.57016 | 33539 ft | 476 kts | 151° |
| 2026-05-04 21:32 | 47.98861 | 9.59719 | 32849 ft | 474 kts | 143° |
| 2026-05-04 21:32 | 47.96195 | 9.62682 | 32598 ft | 480 kts | 144° |
| 2026-05-04 21:32 | 47.93491 | 9.65617 | 32345 ft | 482 kts | 144° |
| 2026-05-04 21:32 | 47.90763 | 9.68534 | 32103 ft | 483 kts | 144° |
| 2026-05-04 21:33 | 47.88565 | 9.70871 | 31898 ft | 484 kts | 144° |
| 2026-05-04 21:33 | 47.85826 | 9.73781 | 31642 ft | 484 kts | 144° |
| 2026-05-04 21:33 | 47.83091 | 9.76699 | 31399 ft | 485 kts | 144° |
| 2026-05-04 21:33 | 47.80384 | 9.79597 | 31150 ft | 486 kts | 144° |
| 2026-05-04 21:34 | 47.77642 | 9.82545 | 30902 ft | 486 kts | 144° |
| 2026-05-04 21:34 | 47.74899 | 9.85495 | 30651 ft | 487 kts | 144° |
| 2026-05-04 21:34 | 47.72153 | 9.88445 | 30401 ft | 487 kts | 144° |
| 2026-05-04 21:34 | 47.69403 | 9.91390 | 30217 ft | 488 kts | 144° |
| 2026-05-04 21:35 | 47.66646 | 9.94332 | 30255 ft | 487 kts | 144° |
| 2026-05-04 21:35 | 47.61144 | 10.00183 | 30357 ft | 487 kts | 144° |
| 2026-05-04 21:36 | 47.55624 | 10.06042 | 30389 ft | 489 kts | 144° |
| 2026-05-04 21:36 | 47.50142 | 10.11839 | 29532 ft | 487 kts | 144° |
| 2026-05-04 21:36 | 47.47376 | 10.14761 | 29154 ft | 491 kts | 144° |
| 2026-05-04 21:37 | 47.44583 | 10.17711 | 28963 ft | 495 kts | 144° |
| 2026-05-04 21:37 | 47.38857 | 10.23327 | 29008 ft | 494 kts | 148° |
| 2026-05-04 21:38 | 47.32967 | 10.28552 | 29007 ft | 494 kts | 149° |
| 2026-05-04 21:38 | 47.27050 | 10.33728 | 29010 ft | 496 kts | 149° |
| 2026-05-04 21:39 | 47.21187 | 10.38965 | 29006 ft | 496 kts | 148° |
| 2026-05-04 21:39 | 47.15299 | 10.44293 | 28992 ft | 498 kts | 148° |
| 2026-05-04 21:40 | 47.09401 | 10.49606 | 29013 ft | 497 kts | 149° |
| 2026-05-04 21:40 | 47.03191 | 10.54025 | 28986 ft | 498 kts | 163° |
| 2026-05-04 21:41 | 46.96570 | 10.56993 | 29006 ft | 497 kts | 163° |
| 2026-05-04 21:41 | 46.90008 | 10.59966 | 29009 ft | 497 kts | 163° |
| 2026-05-04 21:42 | 46.83396 | 10.62955 | 29011 ft | 498 kts | 163° |
| 2026-05-04 21:42 | 46.76774 | 10.65937 | 29011 ft | 498 kts | 163° |
| 2026-05-04 21:43 | 46.70210 | 10.68800 | 29007 ft | 483 kts | 165° |
| 2026-05-04 21:43 | 46.63688 | 10.71018 | 29009 ft | 477 kts | 168° |
| 2026-05-04 21:44 | 46.57223 | 10.72922 | 29009 ft | 475 kts | 168° |
| 2026-05-04 21:44 | 46.50730 | 10.74926 | 29008 ft | 478 kts | 168° |
| 2026-05-04 21:45 | 46.44261 | 10.77040 | 29012 ft | 480 kts | 167° |
| 2026-05-04 21:45 | 46.37757 | 10.79191 | 29032 ft | 478 kts | 167° |
| 2026-05-04 21:46 | 46.31270 | 10.81308 | 29027 ft | 477 kts | 167° |
| 2026-05-04 21:46 | 46.24792 | 10.83389 | 29026 ft | 476 kts | 167° |
| 2026-05-04 21:47 | 46.18325 | 10.85466 | 29027 ft | 476 kts | 167° |
| 2026-05-04 21:47 | 46.12956 | 10.87193 | 29005 ft | 476 kts | 167° |
| 2026-05-04 21:48 | 46.05452 | 10.89602 | 29032 ft | 474 kts | 167° |
| 2026-05-04 21:48 | 45.99029 | 10.91655 | 28735 ft | 471 kts | 168° |
| 2026-05-04 21:48 | 45.95840 | 10.92672 | 28484 ft | 467 kts | 168° |
| 2026-05-04 21:49 | 45.92661 | 10.93685 | 28233 ft | 469 kts | 168° |
| 2026-05-04 21:49 | 45.89469 | 10.94702 | 27863 ft | 470 kts | 168° |
| 2026-05-04 21:49 | 45.87357 | 10.95375 | 27087 ft | 472 kts | 168° |
| 2026-05-04 21:49 | 45.84139 | 10.96399 | 25834 ft | 475 kts | 168° |
| 2026-05-04 21:50 | 45.80900 | 10.97430 | 24564 ft | 478 kts | 168° |
| 2026-05-04 21:50 | 45.77650 | 10.98464 | 23293 ft | 479 kts | 167° |
| 2026-05-04 21:50 | 45.74492 | 10.99943 | 22327 ft | 476 kts | 155° |
| 2026-05-04 21:50 | 45.71695 | 11.02411 | 21431 ft | 471 kts | 141° |
| 2026-05-04 21:51 | 45.69401 | 11.05730 | 20512 ft | 468 kts | 130° |
| 2026-05-04 21:51 | 45.67301 | 11.09266 | 19637 ft | 465 kts | 130° |
| 2026-05-04 21:51 | 45.65234 | 11.12781 | 18866 ft | 458 kts | 130° |
| 2026-05-04 21:51 | 45.63202 | 11.16254 | 18110 ft | 453 kts | 130° |
| 2026-05-04 21:52 | 45.61228 | 11.19632 | 17392 ft | 447 kts | 130° |
| 2026-05-04 21:52 | 45.58501 | 11.24027 | 16707 ft | 433 kts | 138° |
| 2026-05-04 21:52 | 45.56950 | 11.25767 | 16430 ft | 425 kts | 145° |
| 2026-05-04 21:52 | 45.54524 | 11.28123 | 15875 ft | 419 kts | 146° |
| 2026-05-04 21:53 | 45.52117 | 11.30428 | 15277 ft | 414 kts | 146° |
| 2026-05-04 21:53 | 45.49729 | 11.32694 | 14659 ft | 411 kts | 147° |
| 2026-05-04 21:53 | 45.47357 | 11.34936 | 14048 ft | 407 kts | 147° |
| 2026-05-04 21:53 | 45.45006 | 11.37158 | 13458 ft | 403 kts | 147° |
| 2026-05-04 21:54 | 45.42680 | 11.39354 | 12854 ft | 399 kts | 147° |
| 2026-05-04 21:54 | 45.40375 | 11.41527 | 12228 ft | 396 kts | 147° |
| 2026-05-04 21:54 | 45.38090 | 11.43679 | 11579 ft | 392 kts | 147° |
| 2026-05-04 21:54 | 45.35823 | 11.45813 | 10922 ft | 389 kts | 147° |
| 2026-05-04 21:55 | 45.33613 | 11.47897 | 10636 ft | 383 kts | 147° |
| 2026-05-04 21:55 | 45.31437 | 11.49951 | 10383 ft | 369 kts | 147° |
| 2026-05-04 21:55 | 45.29338 | 11.51927 | 10131 ft | 355 kts | 147° |
| 2026-05-04 21:55 | 45.27313 | 11.53830 | 9873 ft | 343 kts | 147° |
| 2026-05-04 21:56 | 45.25352 | 11.55674 | 9626 ft | 333 kts | 147° |
| 2026-05-04 21:56 | 45.23453 | 11.57461 | 9386 ft | 323 kts | 147° |
| 2026-05-04 21:56 | 45.21607 | 11.59197 | 9131 ft | 314 kts | 147° |
| 2026-05-04 21:56 | 45.19805 | 11.60887 | 8878 ft | 306 kts | 147° |
| 2026-05-04 21:57 | 45.18050 | 11.62528 | 8631 ft | 299 kts | 147° |
| 2026-05-04 21:57 | 45.16339 | 11.64130 | 8381 ft | 292 kts | 147° |
| 2026-05-04 21:57 | 45.14668 | 11.65695 | 8131 ft | 285 kts | 147° |
| 2026-05-04 21:57 | 45.13033 | 11.67222 | 7880 ft | 278 kts | 147° |
| 2026-05-04 21:58 | 45.11441 | 11.68719 | 7630 ft | 271 kts | 144° |
| 2026-05-04 21:58 | 45.10081 | 11.70516 | 7380 ft | 265 kts | 131° |
| 2026-05-04 21:58 | 45.08893 | 11.72428 | 7129 ft | 259 kts | 131° |
| 2026-05-04 21:58 | 45.07713 | 11.74312 | 6881 ft | 253 kts | 132° |
| 2026-05-04 21:59 | 45.06775 | 11.76356 | 6630 ft | 246 kts | 106° |
| 2026-05-04 21:59 | 45.06721 | 11.78708 | 6381 ft | 239 kts | 73° |
| 2026-05-04 21:59 | 45.07552 | 11.80689 | 6131 ft | 236 kts | 41° |
| 2026-05-04 21:59 | 45.08815 | 11.82182 | 5881 ft | 237 kts | 40° |
| 2026-05-04 22:00 | 45.10054 | 11.83711 | 5631 ft | 236 kts | 41° |
| 2026-05-04 22:00 | 45.11275 | 11.85260 | 5375 ft | 235 kts | 41° |
| 2026-05-04 22:00 | 45.12490 | 11.86806 | 5133 ft | 234 kts | 41° |
| 2026-05-04 22:00 | 45.13703 | 11.88347 | 5016 ft | 234 kts | 41° |
| 2026-05-04 22:01 | 45.14920 | 11.89883 | 4872 ft | 235 kts | 41° |
| 2026-05-04 22:01 | 45.16130 | 11.91406 | 4783 ft | 233 kts | 41° |
| 2026-05-04 22:01 | 45.17340 | 11.92934 | 4732 ft | 233 kts | 41° |
| 2026-05-04 22:01 | 45.18552 | 11.94465 | 4678 ft | 233 kts | 41° |
| 2026-05-04 22:02 | 45.19746 | 11.95972 | 4625 ft | 233 kts | 41° |
| 2026-05-04 22:02 | 45.20958 | 11.97502 | 4508 ft | 233 kts | 41° |
| 2026-05-04 22:02 | 45.22168 | 11.99022 | 4264 ft | 232 kts | 41° |
| 2026-05-04 22:02 | 45.23375 | 12.00544 | 3893 ft | 233 kts | 41° |
| 2026-05-04 22:03 | 45.24573 | 12.02062 | 3615 ft | 229 kts | 41° |
| 2026-05-04 22:03 | 45.25738 | 12.03541 | 3484 ft | 220 kts | 41° |
| 2026-05-04 22:03 | 45.26855 | 12.04960 | 3358 ft | 211 kts | 41° |
| 2026-05-04 22:03 | 45.27930 | 12.06326 | 3198 ft | 204 kts | 41° |
| 2026-05-04 22:04 | 45.28985 | 12.07667 | 3062 ft | 203 kts | 41° |
| 2026-05-04 22:04 | 45.30036 | 12.09003 | 3011 ft | 202 kts | 41° |
| 2026-05-04 22:04 | 45.31085 | 12.10338 | 3017 ft | 202 kts | 41° |
| 2026-05-04 22:04 | 45.32069 | 12.11591 | 3036 ft | 183 kts | 41° |
| 2026-05-04 22:05 | 45.32977 | 12.12747 | 3005 ft | 167 kts | 41° |
| 2026-05-04 22:05 | 45.33811 | 12.13811 | 3003 ft | 158 kts | 41° |
| 2026-05-04 22:05 | 45.34618 | 12.14839 | 3009 ft | 155 kts | 41° |
| 2026-05-04 22:05 | 45.35416 | 12.15857 | 3015 ft | 154 kts | 41° |
| 2026-05-04 22:06 | 45.36206 | 12.16865 | 3010 ft | 150 kts | 41° |
| 2026-05-04 22:06 | 45.36983 | 12.17856 | 3026 ft | 149 kts | 41° |
| 2026-05-04 22:06 | 45.37756 | 12.18841 | 2976 ft | 149 kts | 41° |
| 2026-05-04 22:06 | 45.38530 | 12.19821 | 2885 ft | 148 kts | 41° |
| 2026-05-04 22:07 | 45.39303 | 12.20791 | 2791 ft | 148 kts | 41° |
| 2026-05-04 22:07 | 45.40060 | 12.21756 | 2640 ft | 148 kts | 41° |
| 2026-05-04 22:07 | 45.40819 | 12.22744 | 2404 ft | 147 kts | 42° |
| 2026-05-04 22:07 | 45.41567 | 12.23737 | 2196 ft | 147 kts | 43° |
| 2026-05-04 22:08 | 45.42305 | 12.24738 | 1975 ft | 146 kts | 43° |
| 2026-05-04 22:08 | 45.43062 | 12.25701 | 1747 ft | 146 kts | 39° |
| 2026-05-04 22:08 | 45.43848 | 12.26604 | 1533 ft | 145 kts | 38° |
| 2026-05-04 22:08 | 45.44620 | 12.27529 | 1382 ft | 145 kts | 40° |
| 2026-05-04 22:09 | 45.45368 | 12.28489 | 1228 ft | 145 kts | 42° |
| 2026-05-04 22:09 | 45.46108 | 12.29461 | 956 ft | 144 kts | 42° |
| 2026-05-04 22:09 | 45.46843 | 12.30428 | 715 ft | 143 kts | 42° |
| 2026-05-04 22:09 | 45.47570 | 12.31396 | 554 ft | 143 kts | 43° |
| 2026-05-04 22:10 | 45.48301 | 12.32360 | 352 ft | 143 kts | 40° |
| 2026-05-04 22:10 | 45.49039 | 12.33298 | 175 ft | 142 kts | 42° |
| 2026-05-04 22:10 | 45.49760 | 12.34215 | 18 ft | 134 kts | 42° |
| 2026-05-04 22:10 | 45.50331 | 12.34938 | 14 ft | 71 kts | 41° |
| 2026-05-04 22:11 | 45.50613 | 12.35306 | 14 ft | 50 kts | 43° |
| 2026-05-04 22:11 | 45.50855 | 12.35549 | 18 ft | 35 kts | 7° |
| 2026-05-04 22:11 | 45.50971 | 12.35550 | 16 ft | 10 kts | 336° |
| 2026-05-04 22:11 | 45.50976 | 12.35546 | 16 ft | 0 kts | 329° |
| 2026-05-04 22:12 | 45.50998 | 12.35473 | 17 ft | 18 kts | 262° |
| 2026-05-04 22:12 | 45.50964 | 12.35268 | 19 ft | 22 kts | 258° |
| 2026-05-04 22:12 | 45.50870 | 12.35095 | 19 ft | 23 kts | 222° |
| 2026-05-04 22:12 | 45.50740 | 12.34928 | 16 ft | 26 kts | 223° |
| 2026-05-04 22:13 | 45.50612 | 12.34736 | 15 ft | 27 kts | 243° |
| 2026-05-04 22:13 | 45.50594 | 12.34471 | 15 ft | 28 kts | 266° |
| 2026-05-04 22:13 | 45.50615 | 12.34282 | 15 ft | 14 kts | 263° |
| 2026-05-04 22:13 | 45.50612 | 12.34199 | 15 ft | 0 kts | 268° |